Scenic, Washington
Current Conditions -  °F | °C
As of 11:53 AM on Saturday 25 Oct 2014 (Local Time) from KRNT Reporting Station
Overcast Overcast  
Wind Chill: 57°   Ceiling: 9500
Heat Index: 57°   Visibility: 10mi
Dew Point: 53°   Wind: 8mph
Humidity: 87%   Direction: 290°WNW
Pressure: 29.39"   Gusts: NA
Location:  47.6494°N, 121.356°W
Report Text: KRNT 251853Z 29007KT 10SM FEW055 OVC095 14/12 A2939 RMK AO2 RAB40E50 SLP958 P0000 T01390117
Loading
Personal Weather Stations






























Interactive Weather Map
Tropical Storm Tracking
New forecast layout! Learn more

10-Day Weather Forecast

Advertisements
Track Severe Weather on mobile